SWA3615 KOKC-KDEN
Flight info
| Callsign | SWA3615 |
|---|---|
| Flight time | 1h 9m |
| Altitude | 34000 |
| Route | STPHN3 ZEEWE KK36A HALEN NIIXX4 |
| Aircraft | B38M/M-SDE1FGHILORVWXY/HB1 |
Departure
| Time | 2026-04-12 01:03 |
|---|---|
| Airport | OKC Will Rogers World Airport (KOKC) |
Arrival
| Time | 2026-04-12 02:12 |
|---|---|
| Airport | Denver International Airport (KDEN) |
| Time | Latitude | Longitude | Altitude | Speed | Heading |
|---|---|---|---|---|---|
| 2026-04-11 22:50 | 35.39455 | -97.59616 | 1300 ft | 0 kts | 353° |
| 2026-04-12 00:55 | 35.39447 | -97.59615 | 1299 ft | 2 kts | 353° |
| 2026-04-12 00:55 | 35.39427 | -97.59612 | 1300 ft | 3 kts | 353° |
| 2026-04-12 00:55 | 35.39410 | -97.59609 | 1300 ft | 3 kts | 349° |
| 2026-04-12 00:55 | 35.39394 | -97.59600 | 1300 ft | 3 kts | 311° |
| 2026-04-12 00:56 | 35.39385 | -97.59580 | 1300 ft | 3 kts | 281° |
| 2026-04-12 00:56 | 35.39383 | -97.59564 | 1300 ft | 1 kts | 270° |
| 2026-04-12 00:59 | 35.39383 | -97.59616 | 1300 ft | 13 kts | 271° |
| 2026-04-12 00:59 | 35.39410 | -97.59753 | 1299 ft | 17 kts | 289° |
| 2026-04-12 00:59 | 35.39416 | -97.59909 | 1299 ft | 20 kts | 270° |
| 2026-04-12 00:59 | 35.39428 | -97.60037 | 1297 ft | 15 kts | 261° |
| 2026-04-12 01:00 | 35.39466 | -97.60151 | 1293 ft | 18 kts | 317° |
| 2026-04-12 01:00 | 35.39590 | -97.60293 | 1293 ft | 28 kts | 315° |
| 2026-04-12 01:00 | 35.39733 | -97.60400 | 1290 ft | 24 kts | 358° |
| 2026-04-12 01:00 | 35.39901 | -97.60401 | 1292 ft | 24 kts | 0° |
| 2026-04-12 01:01 | 35.40070 | -97.60401 | 1296 ft | 24 kts | 0° |
| 2026-04-12 01:01 | 35.40258 | -97.60400 | 1299 ft | 28 kts | 360° |
| 2026-04-12 01:01 | 35.40443 | -97.60402 | 1300 ft | 23 kts | 0° |
| 2026-04-12 01:01 | 35.40563 | -97.60422 | 1299 ft | 13 kts | 313° |
| 2026-04-12 01:02 | 35.40574 | -97.60547 | 1300 ft | 14 kts | 243° |
| 2026-04-12 01:02 | 35.40408 | -97.60572 | 1298 ft | 51 kts | 179° |
| 2026-04-12 01:02 | 35.39842 | -97.60572 | 1293 ft | 110 kts | 180° |
| 2026-04-12 01:02 | 35.38920 | -97.60577 | 1354 ft | 147 kts | 178° |
| 2026-04-12 01:03 | 35.37908 | -97.60576 | 1942 ft | 143 kts | 179° |
| 2026-04-12 01:03 | 35.36893 | -97.60582 | 2428 ft | 154 kts | 187° |
| 2026-04-12 01:03 | 35.35892 | -97.61036 | 3088 ft | 154 kts | 200° |
| 2026-04-12 01:03 | 35.35028 | -97.62031 | 3416 ft | 195 kts | 233° |
| 2026-04-12 01:04 | 35.34662 | -97.63787 | 3720 ft | 239 kts | 264° |
| 2026-04-12 01:04 | 35.35100 | -97.65887 | 4229 ft | 267 kts | 283° |
| 2026-04-12 01:04 | 35.35686 | -97.68097 | 4879 ft | 277 kts | 281° |
| 2026-04-12 01:04 | 35.36262 | -97.70346 | 5845 ft | 275 kts | 281° |
| 2026-04-12 01:05 | 35.36840 | -97.72585 | 6764 ft | 276 kts | 282° |
| 2026-04-12 01:05 | 35.37422 | -97.74839 | 7600 ft | 279 kts | 282° |
| 2026-04-12 01:05 | 35.38009 | -97.77112 | 8438 ft | 281 kts | 282° |
| 2026-04-12 01:05 | 35.38603 | -97.79412 | 9280 ft | 284 kts | 282° |
| 2026-04-12 01:06 | 35.39201 | -97.81727 | 10110 ft | 287 kts | 283° |
| 2026-04-12 01:06 | 35.39816 | -97.84126 | 10572 ft | 304 kts | 283° |
| 2026-04-12 01:06 | 35.40469 | -97.86687 | 10881 ft | 325 kts | 283° |
| 2026-04-12 01:06 | 35.41162 | -97.89407 | 11209 ft | 342 kts | 283° |
| 2026-04-12 01:07 | 35.41887 | -97.92239 | 11709 ft | 353 kts | 284° |
| 2026-04-12 01:07 | 35.42626 | -97.95111 | 12492 ft | 354 kts | 284° |
| 2026-04-12 01:07 | 35.43374 | -97.98011 | 13202 ft | 359 kts | 284° |
| 2026-04-12 01:08 | 35.44895 | -98.03909 | 14602 ft | 367 kts | 284° |
| 2026-04-12 01:08 | 35.45666 | -98.06907 | 15312 ft | 370 kts | 284° |
| 2026-04-12 01:08 | 35.46442 | -98.09919 | 15980 ft | 374 kts | 284° |
| 2026-04-12 01:08 | 35.47216 | -98.12977 | 16636 ft | 377 kts | 281° |
| 2026-04-12 01:09 | 35.47607 | -98.16186 | 17280 ft | 377 kts | 272° |
| 2026-04-12 01:09 | 35.47901 | -98.19397 | 17891 ft | 381 kts | 272° |
| 2026-04-12 01:09 | 35.48196 | -98.22641 | 18509 ft | 385 kts | 272° |
| 2026-04-12 01:09 | 35.48493 | -98.25917 | 19056 ft | 388 kts | 272° |
| 2026-04-12 01:10 | 35.48791 | -98.29219 | 19628 ft | 390 kts | 272° |
| 2026-04-12 01:10 | 35.49088 | -98.32535 | 20190 ft | 392 kts | 272° |
| 2026-04-12 01:10 | 35.49386 | -98.35875 | 20739 ft | 395 kts | 272° |
| 2026-04-12 01:10 | 35.49684 | -98.39229 | 21286 ft | 397 kts | 272° |
| 2026-04-12 01:11 | 35.49985 | -98.42611 | 21832 ft | 400 kts | 272° |
| 2026-04-12 01:11 | 35.50286 | -98.46015 | 22363 ft | 403 kts | 272° |
| 2026-04-12 01:11 | 35.50588 | -98.49441 | 22880 ft | 405 kts | 272° |
| 2026-04-12 01:11 | 35.50891 | -98.52892 | 23392 ft | 408 kts | 272° |
| 2026-04-12 01:12 | 35.51195 | -98.56368 | 23861 ft | 411 kts | 272° |
| 2026-04-12 01:12 | 35.51500 | -98.59857 | 24291 ft | 413 kts | 272° |
| 2026-04-12 01:12 | 35.51806 | -98.63377 | 24723 ft | 415 kts | 272° |
| 2026-04-12 01:12 | 35.52113 | -98.66910 | 25160 ft | 417 kts | 272° |
| 2026-04-12 01:13 | 35.52420 | -98.70457 | 25585 ft | 419 kts | 272° |
| 2026-04-12 01:13 | 35.52727 | -98.74024 | 26003 ft | 421 kts | 272° |
| 2026-04-12 01:13 | 35.53035 | -98.77610 | 26407 ft | 424 kts | 272° |
| 2026-04-12 01:13 | 35.53343 | -98.81215 | 26811 ft | 426 kts | 272° |
| 2026-04-12 01:14 | 35.53652 | -98.84840 | 27208 ft | 427 kts | 272° |
| 2026-04-12 01:14 | 35.53961 | -98.88480 | 27595 ft | 430 kts | 272° |
| 2026-04-12 01:14 | 35.54271 | -98.92136 | 27966 ft | 432 kts | 272° |
| 2026-04-12 01:14 | 35.54579 | -98.95802 | 28335 ft | 434 kts | 271° |
| 2026-04-12 01:15 | 35.54890 | -98.99501 | 28714 ft | 436 kts | 271° |
| 2026-04-12 01:15 | 35.55200 | -99.03211 | 29068 ft | 438 kts | 271° |
| 2026-04-12 01:15 | 35.55512 | -99.06940 | 29423 ft | 440 kts | 271° |
| 2026-04-12 01:15 | 35.55824 | -99.10692 | 29781 ft | 442 kts | 271° |
| 2026-04-12 01:16 | 35.56104 | -99.13222 | 30009 ft | 447 kts | 278° |
| 2026-04-12 01:16 | 35.57685 | -99.17958 | 30475 ft | 460 kts | 296° |
| 2026-04-12 01:16 | 35.58824 | -99.20226 | 30739 ft | 461 kts | 296° |
| 2026-04-12 01:16 | 35.60510 | -99.23559 | 31166 ft | 459 kts | 296° |
| 2026-04-12 01:17 | 35.62212 | -99.26873 | 31632 ft | 457 kts | 297° |
| 2026-04-12 01:17 | 35.63916 | -99.30159 | 32098 ft | 455 kts | 297° |
| 2026-04-12 01:17 | 35.65617 | -99.33427 | 32584 ft | 452 kts | 297° |
| 2026-04-12 01:17 | 35.67311 | -99.36678 | 33043 ft | 450 kts | 297° |
| 2026-04-12 01:18 | 35.68993 | -99.39908 | 33525 ft | 447 kts | 296° |
| 2026-04-12 01:18 | 35.70658 | -99.43110 | 34001 ft | 444 kts | 296° |
| 2026-04-12 01:18 | 35.72316 | -99.46299 | 34401 ft | 441 kts | 296° |
| 2026-04-12 01:18 | 35.73966 | -99.49478 | 34794 ft | 439 kts | 296° |
| 2026-04-12 01:19 | 35.75604 | -99.52635 | 35150 ft | 437 kts | 295° |
| 2026-04-12 01:19 | 35.77237 | -99.55785 | 35489 ft | 435 kts | 295° |
| 2026-04-12 01:19 | 35.78862 | -99.58922 | 35816 ft | 434 kts | 295° |
| 2026-04-12 01:19 | 35.80488 | -99.62065 | 35995 ft | 435 kts | 295° |
| 2026-04-12 01:20 | 35.82108 | -99.65198 | 35988 ft | 432 kts | 295° |
| 2026-04-12 01:20 | 35.85328 | -99.71435 | 35984 ft | 431 kts | 295° |
| 2026-04-12 01:21 | 35.88570 | -99.77726 | 35975 ft | 432 kts | 295° |
| 2026-04-12 01:21 | 35.91790 | -99.83988 | 35969 ft | 432 kts | 294° |
| 2026-04-12 01:22 | 35.95009 | -99.90257 | 35967 ft | 433 kts | 294° |
| 2026-04-12 01:22 | 35.98237 | -99.96552 | 35966 ft | 434 kts | 294° |
| 2026-04-12 01:23 | 36.02171 | -100.02323 | 35976 ft | 451 kts | 309° |
| 2026-04-12 01:23 | 36.06767 | -100.07605 | 35964 ft | 453 kts | 309° |
| 2026-04-12 01:24 | 36.11416 | -100.12876 | 35958 ft | 453 kts | 309° |
| 2026-04-12 01:24 | 36.16064 | -100.18134 | 35962 ft | 453 kts | 308° |
| 2026-04-12 01:25 | 36.20708 | -100.23397 | 35953 ft | 452 kts | 308° |
| 2026-04-12 01:25 | 36.25339 | -100.28653 | 35944 ft | 451 kts | 308° |
| 2026-04-12 01:26 | 36.29965 | -100.33913 | 35949 ft | 451 kts | 308° |
| 2026-04-12 01:26 | 36.34584 | -100.39171 | 35956 ft | 450 kts | 308° |
| 2026-04-12 01:27 | 36.39190 | -100.44426 | 35966 ft | 450 kts | 307° |
| 2026-04-12 01:27 | 36.43791 | -100.49685 | 35973 ft | 450 kts | 307° |
| 2026-04-12 01:28 | 36.48391 | -100.54949 | 35977 ft | 450 kts | 307° |
| 2026-04-12 01:28 | 36.52989 | -100.60222 | 35979 ft | 450 kts | 307° |
| 2026-04-12 01:29 | 36.57621 | -100.65541 | 35977 ft | 450 kts | 307° |
| 2026-04-12 01:29 | 36.62219 | -100.70831 | 35971 ft | 450 kts | 307° |
| 2026-04-12 01:30 | 36.66813 | -100.76125 | 35964 ft | 450 kts | 307° |
| 2026-04-12 01:30 | 36.71410 | -100.81431 | 35955 ft | 450 kts | 307° |
| 2026-04-12 01:31 | 36.76002 | -100.86742 | 35947 ft | 450 kts | 307° |
| 2026-04-12 01:31 | 36.80598 | -100.92065 | 35959 ft | 451 kts | 307° |
| 2026-04-12 01:32 | 36.85190 | -100.97393 | 35968 ft | 450 kts | 307° |
| 2026-04-12 01:32 | 36.89773 | -101.02720 | 35975 ft | 450 kts | 307° |
| 2026-04-12 01:33 | 36.94354 | -101.08055 | 35976 ft | 450 kts | 307° |
| 2026-04-12 01:33 | 36.98926 | -101.13387 | 35973 ft | 450 kts | 307° |
| 2026-04-12 01:34 | 37.03503 | -101.18734 | 35966 ft | 450 kts | 307° |
| 2026-04-12 01:34 | 37.08070 | -101.24079 | 35958 ft | 450 kts | 307° |
| 2026-04-12 01:35 | 37.12669 | -101.29470 | 35967 ft | 450 kts | 307° |
| 2026-04-12 01:35 | 37.17238 | -101.34837 | 35968 ft | 450 kts | 307° |
| 2026-04-12 01:36 | 37.21810 | -101.40216 | 35967 ft | 451 kts | 307° |
| 2026-04-12 01:36 | 37.26381 | -101.45602 | 35955 ft | 451 kts | 307° |
| 2026-04-12 01:37 | 37.30956 | -101.51005 | 35938 ft | 452 kts | 307° |
| 2026-04-12 01:37 | 37.35534 | -101.56418 | 35912 ft | 452 kts | 307° |
| 2026-04-12 01:38 | 37.40111 | -101.61841 | 35908 ft | 452 kts | 307° |
| 2026-04-12 01:38 | 37.44688 | -101.67273 | 35921 ft | 452 kts | 307° |
| 2026-04-12 01:39 | 37.49263 | -101.72713 | 35937 ft | 452 kts | 307° |
| 2026-04-12 01:39 | 37.53836 | -101.78160 | 35936 ft | 452 kts | 307° |
| 2026-04-12 01:40 | 37.58406 | -101.83612 | 35942 ft | 452 kts | 307° |
| 2026-04-12 01:40 | 37.62974 | -101.89072 | 35930 ft | 453 kts | 307° |
| 2026-04-12 01:41 | 37.67540 | -101.94540 | 35910 ft | 453 kts | 307° |
| 2026-04-12 01:41 | 37.72110 | -102.00018 | 35888 ft | 453 kts | 308° |
| 2026-04-12 01:42 | 37.76684 | -102.05512 | 35869 ft | 453 kts | 308° |
| 2026-04-12 01:42 | 37.81252 | -102.11010 | 35853 ft | 454 kts | 308° |
| 2026-04-12 01:43 | 37.85623 | -102.16778 | 35848 ft | 451 kts | 304° |
| 2026-04-12 01:43 | 37.89913 | -102.22592 | 35845 ft | 452 kts | 304° |
| 2026-04-12 01:44 | 37.94222 | -102.28413 | 35850 ft | 453 kts | 304° |
| 2026-04-12 01:44 | 37.98537 | -102.34250 | 35872 ft | 455 kts | 304° |
| 2026-04-12 01:45 | 38.02867 | -102.40117 | 35890 ft | 456 kts | 304° |
| 2026-04-12 01:45 | 38.07198 | -102.45997 | 35908 ft | 456 kts | 304° |
| 2026-04-12 01:46 | 38.11532 | -102.51893 | 35923 ft | 457 kts | 304° |
| 2026-04-12 01:46 | 38.15866 | -102.57798 | 35927 ft | 458 kts | 304° |
| 2026-04-12 01:47 | 38.20210 | -102.63734 | 35922 ft | 458 kts | 304° |
| 2026-04-12 01:47 | 38.24541 | -102.69680 | 35906 ft | 459 kts | 304° |
| 2026-04-12 01:48 | 38.28877 | -102.75644 | 35875 ft | 459 kts | 304° |
| 2026-04-12 01:48 | 38.33208 | -102.81612 | 35848 ft | 459 kts | 304° |
| 2026-04-12 01:49 | 38.36846 | -102.86634 | 35819 ft | 460 kts | 304° |
| 2026-04-12 01:49 | 38.41179 | -102.92625 | 35800 ft | 460 kts | 304° |
| 2026-04-12 01:50 | 38.45519 | -102.98638 | 35800 ft | 460 kts | 304° |
| 2026-04-12 01:50 | 38.49848 | -103.04647 | 35796 ft | 461 kts | 304° |
| 2026-04-12 01:51 | 38.56343 | -103.13684 | 35794 ft | 460 kts | 304° |
| 2026-04-12 01:51 | 38.60679 | -103.19731 | 35796 ft | 461 kts | 304° |
| 2026-04-12 01:52 | 38.65002 | -103.25773 | 35795 ft | 461 kts | 303° |
| 2026-04-12 01:52 | 38.69326 | -103.31827 | 35795 ft | 460 kts | 303° |
| 2026-04-12 01:53 | 38.73633 | -103.37866 | 35202 ft | 459 kts | 303° |
| 2026-04-12 01:53 | 38.75809 | -103.40927 | 33969 ft | 472 kts | 304° |
| 2026-04-12 01:53 | 38.78035 | -103.44054 | 33105 ft | 473 kts | 304° |
| 2026-04-12 01:54 | 38.80238 | -103.47151 | 32469 ft | 469 kts | 304° |
| 2026-04-12 01:54 | 38.82436 | -103.50257 | 31717 ft | 468 kts | 305° |
| 2026-04-12 01:54 | 38.84623 | -103.53348 | 30914 ft | 468 kts | 305° |
| 2026-04-12 01:54 | 38.86808 | -103.56439 | 30123 ft | 469 kts | 306° |
| 2026-04-12 01:55 | 38.89004 | -103.59550 | 29229 ft | 469 kts | 306° |
| 2026-04-12 01:55 | 38.91188 | -103.62644 | 28185 ft | 466 kts | 306° |
| 2026-04-12 01:55 | 38.93360 | -103.65726 | 26677 ft | 466 kts | 307° |
| 2026-04-12 01:55 | 38.95538 | -103.68819 | 25458 ft | 463 kts | 307° |
| 2026-04-12 01:56 | 38.97679 | -103.71864 | 24891 ft | 456 kts | 307° |
| 2026-04-12 01:56 | 38.99818 | -103.74910 | 24249 ft | 451 kts | 307° |
| 2026-04-12 01:56 | 39.01915 | -103.77895 | 23523 ft | 449 kts | 307° |
| 2026-04-12 01:56 | 39.04005 | -103.80877 | 22775 ft | 446 kts | 307° |
| 2026-04-12 01:57 | 39.06045 | -103.83790 | 22554 ft | 430 kts | 307° |
| 2026-04-12 01:57 | 39.08015 | -103.86604 | 22337 ft | 417 kts | 307° |
| 2026-04-12 01:57 | 39.09923 | -103.89333 | 22103 ft | 404 kts | 307° |
| 2026-04-12 01:57 | 39.11780 | -103.91990 | 21892 ft | 393 kts | 307° |
| 2026-04-12 01:58 | 39.13580 | -103.94595 | 21437 ft | 388 kts | 307° |
| 2026-04-12 01:58 | 39.15361 | -103.97179 | 21035 ft | 383 kts | 307° |
| 2026-04-12 01:58 | 39.17119 | -103.99730 | 20604 ft | 379 kts | 307° |
| 2026-04-12 01:58 | 39.18861 | -104.02260 | 20153 ft | 376 kts | 307° |
| 2026-04-12 01:59 | 39.20595 | -104.04781 | 19703 ft | 374 kts | 307° |
| 2026-04-12 01:59 | 39.22314 | -104.07281 | 19250 ft | 372 kts | 307° |
| 2026-04-12 01:59 | 39.24027 | -104.09775 | 18796 ft | 370 kts | 307° |
| 2026-04-12 01:59 | 39.25729 | -104.12254 | 18350 ft | 369 kts | 307° |
| 2026-04-12 02:00 | 39.27431 | -104.14735 | 17873 ft | 368 kts | 307° |
| 2026-04-12 02:00 | 39.29114 | -104.17206 | 17388 ft | 365 kts | 305° |
| 2026-04-12 02:00 | 39.30321 | -104.20013 | 16866 ft | 355 kts | 283° |
| 2026-04-12 02:00 | 39.30792 | -104.22796 | 16573 ft | 347 kts | 278° |
| 2026-04-12 02:01 | 39.31290 | -104.25836 | 16232 ft | 342 kts | 279° |
| 2026-04-12 02:01 | 39.31776 | -104.28830 | 15849 ft | 339 kts | 278° |
| 2026-04-12 02:01 | 39.32253 | -104.31804 | 15450 ft | 337 kts | 279° |
| 2026-04-12 02:01 | 39.32724 | -104.34762 | 15054 ft | 335 kts | 279° |
| 2026-04-12 02:02 | 39.33190 | -104.37693 | 14660 ft | 334 kts | 279° |
| 2026-04-12 02:02 | 39.33655 | -104.40626 | 14266 ft | 332 kts | 279° |
| 2026-04-12 02:02 | 39.34117 | -104.43542 | 13875 ft | 330 kts | 279° |
| 2026-04-12 02:02 | 39.34572 | -104.46441 | 13433 ft | 330 kts | 279° |
| 2026-04-12 02:03 | 39.35028 | -104.49342 | 13008 ft | 328 kts | 279° |
| 2026-04-12 02:03 | 39.35483 | -104.52252 | 12629 ft | 325 kts | 279° |
| 2026-04-12 02:03 | 39.35929 | -104.55099 | 12257 ft | 322 kts | 279° |
| 2026-04-12 02:03 | 39.36447 | -104.57895 | 11924 ft | 320 kts | 289° |
| 2026-04-12 02:04 | 39.37666 | -104.60216 | 11695 ft | 319 kts | 316° |
| 2026-04-12 02:04 | 39.39488 | -104.61817 | 11512 ft | 312 kts | 322° |
| 2026-04-12 02:04 | 39.41267 | -104.63415 | 11346 ft | 304 kts | 321° |
| 2026-04-12 02:04 | 39.43147 | -104.64613 | 11124 ft | 304 kts | 344° |
| 2026-04-12 02:05 | 39.45249 | -104.64703 | 10953 ft | 301 kts | 359° |
| 2026-04-12 02:05 | 39.47116 | -104.64627 | 10784 ft | 294 kts | 357° |
| 2026-04-12 02:05 | 39.49137 | -104.64590 | 10608 ft | 288 kts | 357° |
| 2026-04-12 02:05 | 39.51117 | -104.64564 | 10402 ft | 282 kts | 357° |
| 2026-04-12 02:06 | 39.53058 | -104.64541 | 10225 ft | 276 kts | 357° |
| 2026-04-12 02:06 | 39.54959 | -104.64518 | 10055 ft | 269 kts | 357° |
| 2026-04-12 02:06 | 39.56809 | -104.64493 | 9843 ft | 264 kts | 357° |
| 2026-04-12 02:06 | 39.58630 | -104.64468 | 9590 ft | 260 kts | 357° |
| 2026-04-12 02:07 | 39.60428 | -104.64450 | 9322 ft | 257 kts | 357° |
| 2026-04-12 02:07 | 39.62200 | -104.64432 | 9102 ft | 252 kts | 357° |
| 2026-04-12 02:07 | 39.63927 | -104.64416 | 8997 ft | 247 kts | 357° |
| 2026-04-12 02:07 | 39.65644 | -104.64394 | 8840 ft | 244 kts | 358° |
| 2026-04-12 02:08 | 39.67318 | -104.64367 | 8483 ft | 237 kts | 357° |
| 2026-04-12 02:08 | 39.68915 | -104.64346 | 8165 ft | 221 kts | 358° |
| 2026-04-12 02:08 | 39.70366 | -104.64327 | 7896 ft | 197 kts | 358° |
| 2026-04-12 02:08 | 39.71659 | -104.64312 | 7636 ft | 176 kts | 358° |
| 2026-04-12 02:09 | 39.72861 | -104.64300 | 7398 ft | 171 kts | 357° |
| 2026-04-12 02:09 | 39.74047 | -104.64285 | 7188 ft | 170 kts | 358° |
| 2026-04-12 02:09 | 39.75220 | -104.64272 | 6984 ft | 168 kts | 357° |
| 2026-04-12 02:09 | 39.76389 | -104.64256 | 6765 ft | 167 kts | 357° |
| 2026-04-12 02:10 | 39.77547 | -104.64242 | 6569 ft | 166 kts | 356° |
| 2026-04-12 02:10 | 39.77936 | -104.64237 | 6496 ft | 164 kts | 357° |
| 2026-04-12 02:10 | 39.77998 | -104.64236 | 6484 ft | 163 kts | 357° |
| 2026-04-12 02:10 | 39.79129 | -104.64222 | 6260 ft | 161 kts | 357° |
| 2026-04-12 02:11 | 39.80254 | -104.64209 | 6068 ft | 164 kts | 358° |
| 2026-04-12 02:11 | 39.81410 | -104.64184 | 5811 ft | 165 kts | 359° |
| 2026-04-12 02:11 | 39.82529 | -104.64172 | 5560 ft | 158 kts | 358° |
| 2026-04-12 02:11 | 39.83600 | -104.64163 | 5382 ft | 152 kts | 356° |
| 2026-04-12 02:12 | 39.84491 | -104.64158 | 5367 ft | 101 kts | 1° |
| 2026-04-12 02:12 | 39.85112 | -104.64151 | 5360 ft | 79 kts | 359° |
| 2026-04-12 02:12 | 39.85508 | -104.64174 | 5356 ft | 40 kts | 341° |
| 2026-04-12 02:12 | 39.85707 | -104.64304 | 5355 ft | 29 kts | 330° |
| 2026-04-12 02:13 | 39.85812 | -104.64381 | 5354 ft | 19 kts | 331° |
| 2026-04-12 02:13 | 39.85968 | -104.64495 | 5354 ft | 30 kts | 330° |
| 2026-04-12 02:13 | 39.86155 | -104.64634 | 5350 ft | 32 kts | 330° |
| 2026-04-12 02:13 | 39.86353 | -104.64774 | 5351 ft | 32 kts | 332° |
| 2026-04-12 02:14 | 39.86487 | -104.64952 | 5360 ft | 26 kts | 277° |
| 2026-04-12 02:14 | 39.86492 | -104.65215 | 5365 ft | 31 kts | 270° |
| 2026-04-12 02:14 | 39.86495 | -104.65495 | 5370 ft | 30 kts | 271° |
| 2026-04-12 02:14 | 39.86499 | -104.65759 | 5374 ft | 28 kts | 270° |
| 2026-04-12 02:15 | 39.86499 | -104.66003 | 5382 ft | 26 kts | 270° |
| 2026-04-12 02:15 | 39.86493 | -104.66198 | 5384 ft | 15 kts | 242° |
| 2026-04-12 02:15 | 39.86391 | -104.66227 | 5384 ft | 20 kts | 181° |
| 2026-04-12 02:15 | 39.86218 | -104.66230 | 5384 ft | 27 kts | 180° |
| 2026-04-12 02:16 | 39.86118 | -104.66251 | 5384 ft | 16 kts | 222° |
| 2026-04-12 02:16 | 39.86105 | -104.66398 | 5382 ft | 18 kts | 270° |
| 2026-04-12 02:16 | 39.86150 | -104.66510 | 5378 ft | 12 kts | 355° |
| 2026-04-12 02:16 | 39.86185 | -104.66576 | 5378 ft | 13 kts | 270° |
| 2026-04-12 02:17 | 39.86185 | -104.66719 | 5379 ft | 17 kts | 270° |
| 2026-04-12 02:17 | 39.86185 | -104.66867 | 5379 ft | 14 kts | 270° |
| 2026-04-12 02:17 | 39.86214 | -104.66950 | 5379 ft | 5 kts | 351° |
| 2026-04-12 02:17 | 39.86239 | -104.66949 | 5376 ft | 2 kts | 0° |
| 2026-04-12 02:18 | 39.86247 | -104.66949 | 5377 ft | 1 kts | 0° |
| 2026-04-12 02:18 | 39.86250 | -104.66949 | 5377 ft | 0 kts | 0° |